Search for airport 
image banner adimage banner adimage banner ad
image banner ad

KDAG - Barstow-Daggett

Located in Daggett, United States

ICAO - DAG, IATA - DAG

Data provided by Airmate  

General information

Coordinates: N34°51'13" W116°47'12"
Elevation is 1930 feet MSL.
Magnetic variation is 15° East
View others Airports in California

Operational data

Special qualification required
Current time UTC:
Current local time:
Weather
METAR: KDAG 141050Z AUTO 28010KT 10SM CLR 24/04 A2993 RMK AO2 SLP103 T02390044 $
TAF: KDAG 140520Z 1406/1506 25014KT P6SM SKC FM140900 29009KT P6SM SKC FM142200 25018G28KT P6SM FEW250
View NOTAMs / SUP AIP / TFR affecting this airport [VIEW]
Communications frequencies: [VIEW]

Runways:

RWY identifierQFULength (ft)Width (ft)SurfaceLDA (ft)
0450°5123100ASPH
22230°5123100ASPH
0889°6402150ASPH
26270°6402150ASPH

Airport contact information

Address: Daggett United States

Satellite view of KDAG